Reeuwijk, Netherlands
Current Conditions -  °F | °C
As of 10:25 PM on Saturday 20 Dec 2014 (Local Time) from EHRD Reporting Station
Light Rain Light Rain  
Wind Chill: 40°   Ceiling: 2500
Heat Index: 45°   Visibility: 6mi
Dew Point: 39°   Wind: 9mph
Humidity: 81%   Direction: 290°WNW
Pressure: 30.3"   Gusts: NA
Location:  52.05°N, 4.73°E
Report Text: EHRD 202125Z AUTO 29008KT 260V320 9999 -RA FEW015CB BKN025BKN031 OVC038 07/04 Q1026 RERA REDZ TEMPO 29020G30KT 7000 -SHRAGS
Loading
Personal Weather Stations






























Interactive Weather Map New forecast layout! Learn more

10-Day Weather Forecast

Advertisements
Track Severe Weather on mobile